This is the latest recevied weather packets stored in our database for station/object SQ5VCO-13. If no packets are shown the sender has not sent any weather packets the latest 10 day(s).
| Time | Temp. | Humidity | Pressure | Rain* | Wind** | Luminosity | Snow |
|---|---|---|---|---|---|---|---|
| 1778261834 | 9.44° C | 79% | 1017.9 hPa | 0 mm | - | - | - |
| 1778261538 | 9.44° C | 79% | 1017.8 hPa | 0 mm | - | - | - |
| 1778260037 | 9.44° C | 79% | 1017.7 hPa | 0 mm | - | - | - |
| 1778258403 | 9.44° C | 80% | 1017.9 hPa | 0 mm | - | - | - |
| 1778255703 | 10° C | 80% | 1017.6 hPa | 0 mm | - | - | - |
| 1778255235 | 10° C | 80% | 1017.7 hPa | 0 mm | - | - | - |
| 1778253603 | 10° C | 78% | 1017.6 hPa | 0 mm | - | - | - |
| 1778253304 | 10° C | 77% | 1017.6 hPa | 0 mm | - | - | - |
| 1778250004 | 10.56° C | 75% | 1017.7 hPa | 0 mm | - | - | - |
| 1778249403 | 10.56° C | 75% | 1017.7 hPa | 0 mm | - | - | - |
| 1778248804 | 10.56° C | 75% | 1017.7 hPa | 0 mm | - | - | - |
| 1778248204 | 10.56° C | 75% | 1017.2 hPa | 0 mm | - | - | - |
| 1778245937 | 10.56° C | 75% | 1017.4 hPa | 0 mm | - | - | - |
| 1778242504 | 11.67° C | 72% | 1017.4 hPa | 0 mm | - | - | - |
| 1778240704 | 11.11° C | 73% | 1017.3 hPa | 0 mm | - | - | - |
| 1778237703 | 11.11° C | 74% | 1017 hPa | 0 mm | - | - | - |
| 1778237535 | 11.11° C | 74% | 1017.1 hPa | 0 mm | - | - | - |
| 1778235733 | 10.56° C | 75% | 1016.9 hPa | 0 mm | - | - | - |
| 1778234404 | 10.56° C | 75% | 1017 hPa | 0 mm | - | - | - |
| 1778234104 | 10.56° C | 75% | 1017.1 hPa | 0 mm | - | - | - |
| 1778232134 | 10.56° C | 75% | 1016.8 hPa | 0 mm | - | - | - |
| 1778229604 | 10.56° C | 74% | 1016.6 hPa | 0 mm | - | - | - |
| 1778229303 | 10.56° C | 74% | 1016.5 hPa | 0 mm | - | - | - |
| 1778228104 | 11.11° C | 75% | 1016.7 hPa | 0 mm | - | - | - |
| 1778225704 | 10.56° C | 79% | 1016.3 hPa | 0 mm | - | - | - |
* Rain latest hour (hover to see other rain measurements)
** Current wind speed in m/s (hover to see current wind gust speed)